Terminal Aerodrome Forecast
Issued by NWS

Home | Current Version | Previous Version | Text Only | Print | Product List | Glossary On
Versions: 1 2 3 4 5 6 7 8 9 10 11 12 13 14 15 16 17 18 19 20 21 22 23 24 25 26 27 28 29 30 31 32 33 34 35 36
000
FTUS45 KGJT 260523
TAFASE
TAF
KASE 260523Z 2606/2706 21005KT P6SM VCSH FEW010 BKN025 OVC050
      TEMPO 2606/2610 36008KT 5SM -RASN FEW005 BKN015 OVC040
     FM261300 VRB04KT P6SM OVC050
     FM261900 34008KT P6SM VCTS SCT030CB OVC060
     FM262200 34008G18KT 5SM -TSRA BKN030CB OVC050=

USA.gov is the U.S. government's official web portal to all federal, state and local government web resources and services.